| time (UTC) | temp F | wind direction | speed MPH | gust MPH | rain 1hr in | rain 24hr in | rain mn in | humidity % | barometer mb |
| 20260510201240 | 65 | 340 | 3.0 | 7.0 | 0.00 | 0.00 | 0.00 | 30 | 1027.2 |
| 20260510200242 | 64 | 180 | 2.0 | 7.0 | 0.00 | 0.00 | 0.00 | 29 | 1027.3 |
| 20260510195240 | 64 | 265 | 2.0 | 7.0 | 0.00 | 0.00 | 0.00 | 26 | 1027.2 |
| 20260510194238 | 64 | 270 | 2.0 | 8.0 | 0.00 | 0.00 | 0.00 | 23 | 1027.5 |
| 20260510193239 | 63 | 261 | 2.0 | 5.0 | 0.00 | 0.00 | 0.00 | 26 | 1027.5 |
| 20260510192240 | 62 | 30 | 2.0 | 8.0 | 0.00 | 0.00 | 0.00 | 26 | 1027.5 |
| 20260510191240 | 62 | 291 | 2.0 | 9.0 | 0.00 | 0.00 | 0.00 | 27 | 1027.5 |
| 20260510190239 | 61 | 310 | 3.0 | 7.0 | 0.00 | 0.00 | 0.00 | 32 | 1027.5 |
| 20260510185238 | 60 | 256 | 3.0 | 8.0 | 0.00 | 0.00 | 0.00 | 35 | 1027.6 |
| 20260510184247 | 58 | 341 | 3.0 | 8.0 | 0.00 | 0.00 | 0.00 | 42 | 1027.5 |
| 20260510184239 | 60 | 215 | 4.0 | 9.0 | 0.00 | 0.00 | 0.00 | 38 | 1027.6 |
| 20260510183240 | 59 | 217 | 3.0 | 9.0 | 0.00 | 0.00 | 0.00 | 40 | 1027.6 |
| 20260510182228 | 56 | 252 | 3.0 | 9.0 | 0.00 | 0.00 | 0.00 | 45 | 1027.9 |
| 20260510181332 | 57 | 244 | 2.0 | 7.0 | 0.00 | 0.00 | 0.00 | 45 | 1027.7 |
| 20260510175220 | 55 | 288 | 3.0 | 9.0 | 0.00 | 0.00 | 0.00 | 48 | 1027.7 |
| 20260510174220 | 55 | 196 | 2.0 | 10.0 | 0.00 | 0.00 | 0.00 | 49 | 1027.7 |
| 20260510173216 | 54 | 198 | 2.0 | 10.0 | 0.00 | 0.00 | 0.00 | 50 | 1027.7 |
| 20260510172217 | 54 | 160 | 2.0 | 5.0 | 0.00 | 0.00 | 0.00 | 50 | 1027.9 |
| 20260510171211 | 54 | 344 | 2.0 | 5.0 | 0.00 | 0.00 | 0.00 | 50 | 1027.7 |
| 20260510170210 | 50 | 65 | 1.0 | 4.0 | 0.00 | 0.00 | 0.00 | 57 | 1027.9 |
| 20260510170206 | 52 | 219 | 2.0 | 5.0 | 0.00 | 0.00 | 0.00 | 55 | 1027.9 |
| 20260510165201 | 51 | 153 | 3.0 | 8.0 | 0.00 | 0.00 | 0.00 | 55 | 1027.7 |
| 20260510163200 | 50 | 273 | 2.0 | 8.0 | 0.00 | 0.00 | 0.00 | 59 | 1028.0 |
| 20260510162201 | 50 | 329 | 2.0 | 8.0 | 0.00 | 0.00 | 0.00 | 58 | 1027.9 |
| 20260510161200 | 49 | 271 | 2.0 | 5.0 | 0.00 | 0.00 | 0.00 | 59 | 1027.9 |
| 20260510160202 | 48 | 263 | 2.0 | 7.0 | 0.00 | 0.00 | 0.00 | 64 | 1027.9 |
| 20260510155156 | 48 | 236 | 2.0 | 9.0 | 0.00 | 0.00 | 0.00 | 64 | 1027.9 |
| 20260510154156 | 48 | 254 | 2.0 | 6.0 | 0.00 | 0.00 | 0.00 | 63 | 1027.9 |
| 20260510153154 | 48 | 217 | 2.0 | 7.0 | 0.00 | 0.00 | 0.00 | 64 | 1027.7 |
| 20260510152157 | 47 | 263 | 1.0 | 6.0 | 0.00 | 0.00 | 0.00 | 68 | 1027.7 |
| 20260510151156 | 45 | 13 | 2.0 | 4.0 | 0.00 | 0.00 | 0.00 | 71 | 1027.6 |
| 20260510150157 | 44 | 19 | 2.0 | 5.0 | 0.00 | 0.00 | 0.00 | 73 | 1027.6 |
| 20260510150153 | 42 | 198 | 1.0 | 4.0 | 0.00 | 0.00 | 0.00 | 76 | 1027.7 |
| 20260510144153 | 41 | 22 | 1.0 | 4.0 | 0.00 | 0.00 | 0.00 | 80 | 1027.7 |
| 20260510143150 | 40 | 174 | 0.0 | 2.0 | 0.00 | 0.00 | 0.00 | 82 | 1027.7 |
| 20260510142149 | 40 | 173 | 0.0 | 1.0 | 0.00 | 0.00 | 0.00 | 85 | 1027.7 |
| 20260510141153 | 39 | 174 | 1.0 | 4.0 | 0.00 | 0.00 | 0.00 | 89 | 1027.6 |
| 20260510141148 | 39 | 174 | 0.0 | 2.0 | 0.00 | 0.00 | 0.00 | 87 | 1027.7 |
| 20260510135146 | 38 | 175 | 0.0 | 4.0 | 0.00 | 0.00 | 0.00 | 90 | 1027.6 |
| 20260510134149 | 38 | 148 | 0.0 | 0.0 | 0.00 | 0.00 | 0.00 | 92 | 1027.6 |
| 20260510134145 | 38 | 140 | 0.0 | 3.0 | 0.00 | 0.00 | 0.00 | 91 | 1027.5 |
| 20260510132144 | 37 | 148 | 0.0 | 2.0 | 0.00 | 0.00 | 0.00 | 92 | 1027.2 |
| 20260510131150 | 37 | 196 | 2.0 | 6.0 | 0.00 | 0.00 | 0.00 | 92 | 1026.8 |
| 20260510131142 | 37 | 148 | 1.0 | 4.0 | 0.00 | 0.00 | 0.00 | 92 | 1027.2 |
| 20260510130144 | 37 | 163 | 1.0 | 4.0 | 0.00 | 0.00 | 0.00 | 92 | 1026.9 |
| 20260510124143 | 37 | 171 | 1.0 | 4.0 | 0.00 | 0.00 | 0.00 | 92 | 1026.6 |
| 20260510123138 | 37 | 155 | 2.0 | 5.0 | 0.00 | 0.00 | 0.00 | 92 | 1026.6 |
| 20260510122136 | 37 | 178 | 1.0 | 5.0 | 0.00 | 0.00 | 0.00 | 92 | 1026.4 |
| 20260510121240 | 37 | 158 | 1.0 | 5.0 | 0.00 | 0.00 | 0.00 | 92 | 1026.4 |
| 20260510121131 | 37 | 142 | 1.0 | 5.0 | 0.00 | 0.00 | 0.00 | 92 | 1026.4 |
| 20260510121125 | 37 | 173 | 1.0 | 5.0 | 0.00 | 0.00 | 0.00 | 92 | 1026.4 |
| 20260510114124 | 37 | 162 | 0.0 | 5.0 | 0.00 | 0.00 | 0.00 | 92 | 1026.4 |
| 20260510113128 | 38 | 183 | 1.0 | 5.0 | 0.00 | 0.00 | 0.00 | 91 | 1026.4 |
| 20260510112119 | 38 | 145 | 1.0 | 5.0 | 0.00 | 0.00 | 0.00 | 91 | 1026.6 |
| 20260510111118 | 38 | 200 | 0.0 | 3.0 | 0.00 | 0.00 | 0.00 | 91 | 1026.4 |
| 20260510110119 | 38 | 190 | 2.0 | 6.0 | 0.00 | 0.00 | 0.00 | 90 | 1026.4 |
| 20260510105119 | 38 | 194 | 2.0 | 6.0 | 0.00 | 0.00 | 0.00 | 89 | 1026.3 |
| 20260510104119 | 39 | 198 | 0.0 | 4.0 | 0.00 | 0.00 | 0.00 | 88 | 1026.2 |
| 20260510103123 | 40 | 190 | 0.0 | 3.0 | 0.00 | 0.00 | 0.00 | 85 | 1026.3 |
| 20260510103119 | 39 | 193 | 1.0 | 3.0 | 0.00 | 0.00 | 0.00 | 86 | 1026.3 |
| 20260510101107 | 40 | 191 | 1.0 | 4.0 | 0.00 | 0.00 | 0.00 | 84 | 1026.3 |
| 20260510100107 | 39 | 33 | 0.0 | 0.0 | 0.00 | 0.00 | 0.00 | 83 | 1026.3 |
| 20260510095102 | 39 | 33 | 1.0 | 6.0 | 0.00 | 0.00 | 0.00 | 83 | 1026.0 |
| 20260510094100 | 39 | 5 | 1.0 | 4.0 | 0.00 | 0.00 | 0.00 | 84 | 1025.8 |
| 20260510094054 | 39 | 26 | 2.0 | 6.0 | 0.00 | 0.00 | 0.00 | 84 | 1025.6 |
| 20260510092057 | 39 | 99 | 2.0 | 9.0 | 0.00 | 0.00 | 0.00 | 86 | 1025.6 |
| 20260510092052 | 39 | 36 | 2.0 | 10.0 | 0.00 | 0.00 | 0.00 | 85 | 1025.6 |
| 20260510090057 | 39 | 49 | 2.0 | 10.0 | 0.00 | 0.00 | 0.00 | 87 | 1025.4 |
| 20260510090053 | 39 | 5 | 3.0 | 10.0 | 0.00 | 0.00 | 0.00 | 86 | 1025.5 |
| 20260510084056 | 39 | 80 | 2.0 | 6.0 | 0.00 | 0.00 | 0.00 | 87 | 1025.2 |
| 20260510084052 | 39 | 53 | 2.0 | 5.0 | 0.00 | 0.00 | 0.00 | 87 | 1025.4 |
| 20260510082052 | 39 | 36 | 1.0 | 8.0 | 0.00 | 0.00 | 0.00 | 87 | 1025.4 |
| 20260510081052 | 38 | 146 | 2.0 | 9.0 | 0.00 | 0.00 | 0.00 | 87 | 1025.4 |
| 20260510080053 | 38 | 66 | 2.0 | 8.0 | 0.00 | 0.00 | 0.00 | 86 | 1025.2 |
| 20260510075053 | 39 | 92 | 4.0 | 11.0 | 0.00 | 0.00 | 0.00 | 85 | 1025.0 |
| 20260510074052 | 39 | 20 | 5.0 | 13.0 | 0.00 | 0.00 | 0.00 | 84 | 1025.0 |
| 20260510073052 | 39 | 148 | 4.0 | 12.0 | 0.00 | 0.00 | 0.00 | 84 | 1024.7 |
| 20260510072057 | 40 | 19 | 6.0 | 15.0 | 0.00 | 0.00 | 0.00 | 82 | 1024.7 |
| 20260510072053 | 40 | 65 | 6.0 | 22.0 | 0.00 | 0.00 | 0.00 | 84 | 1024.6 |
| 20260510070045 | 40 | 321 | 6.0 | 14.0 | 0.00 | 0.00 | 0.00 | 81 | 1024.7 |
| 20260510065044 | 40 | 5 | 6.0 | 15.0 | 0.00 | 0.00 | 0.00 | 79 | 1024.5 |
| 20260510064045 | 41 | 294 | 7.0 | 20.0 | 0.00 | 0.00 | 0.00 | 78 | 1024.3 |
| 20260510063045 | 41 | 333 | 8.0 | 18.0 | 0.00 | 0.00 | 0.00 | 78 | 1024.2 |
| 20260510062044 | 41 | 55 | 7.0 | 19.0 | 0.00 | 0.00 | 0.00 | 77 | 1023.9 |
| 20260510061044 | 42 | 323 | 7.0 | 16.0 | 0.00 | 0.00 | 0.00 | 77 | 1024.1 |
| 20260510060045 | 42 | 311 | 8.0 | 20.0 | 0.00 | 0.00 | 0.00 | 75 | 1023.7 |
| 20260510055044 | 43 | 282 | 8.0 | 20.0 | 0.00 | 0.00 | 0.00 | 73 | 1023.4 |
| 20260510054045 | 44 | 329 | 6.0 | 15.0 | 0.00 | 0.00 | 0.00 | 69 | 1023.3 |
| 20260510053046 | 45 | 0 | 7.0 | 18.0 | 0.00 | 0.00 | 0.00 | 66 | 1023.0 |
| 20260510053041 | 46 | 163 | 6.0 | 18.0 | 0.00 | 0.00 | 0.00 | 62 | 1023.0 |
| 20260510051039 | 47 | 46 | 6.0 | 17.0 | 0.00 | 0.00 | 0.00 | 58 | 1022.9 |
| 20260510050039 | 49 | 101 | 6.0 | 17.0 | 0.00 | 0.00 | 0.00 | 50 | 1023.0 |
| 20260510045038 | 50 | 23 | 4.0 | 13.0 | 0.00 | 0.00 | 0.00 | 42 | 1022.5 |
| 20260510044039 | 51 | 11 | 1.0 | 4.0 | 0.00 | 0.00 | 0.00 | 38 | 1022.6 |
| 20260510043043 | 51 | 42 | 1.0 | 3.0 | 0.00 | 0.00 | 0.00 | 38 | 1022.2 |
| 20260510043038 | 51 | 109 | 1.0 | 4.0 | 0.00 | 0.00 | 0.00 | 38 | 1022.4 |
| 20260510041038 | 51 | 98 | 0.0 | 4.0 | 0.00 | 0.00 | 0.00 | 37 | 1022.4 |
| 20260510040038 | 51 | 82 | 0.0 | 2.0 | 0.00 | 0.00 | 0.00 | 37 | 1022.4 |
| 20260510035039 | 52 | 82 | 0.0 | 2.0 | 0.00 | 0.00 | 0.00 | 36 | 1022.1 |
| 20260510034043 | 52 | 98 | 0.0 | 3.0 | 0.00 | 0.00 | 0.00 | 36 | 1022.1 |
| 20260510034039 | 52 | 67 | 1.0 | 4.0 | 0.00 | 0.00 | 0.00 | 36 | 1022.1 |
| 20260510032037 | 52 | 107 | 0.0 | 4.0 | 0.00 | 0.00 | 0.00 | 35 | 1022.1 |
| 20260510031038 | 52 | 182 | 0.0 | 0.0 | 0.00 | 0.00 | 0.00 | 35 | 1022.2 |
| 20260510030138 | 52 | 224 | 1.0 | 5.0 | 0.00 | 0.00 | 0.00 | 35 | 1022.0 |
| 20260510030038 | 52 | 184 | 0.0 | 1.0 | 0.00 | 0.00 | 0.00 | 35 | 1022.0 |
| 20260510030033 | 53 | 150 | 1.0 | 4.0 | 0.00 | 0.00 | 0.00 | 35 | 1021.8 |
| 20260510023029 | 53 | 83 | 1.0 | 4.0 | 0.00 | 0.00 | 0.00 | 34 | 1021.2 |
| 20260510022030 | 53 | 93 | 1.0 | 5.0 | 0.00 | 0.00 | 0.00 | 33 | 1020.8 |
| 20260510022026 | 54 | 83 | 3.0 | 6.0 | 0.00 | 0.00 | 0.00 | 33 | 1020.7 |
| 20260510020025 | 54 | 67 | 2.0 | 11.0 | 0.00 | 0.00 | 0.00 | 31 | 1020.5 |
| 20260510015026 | 55 | 14 | 2.0 | 5.0 | 0.00 | 0.00 | 0.00 | 31 | 1020.4 |
| 20260510014023 | 55 | 11 | 3.0 | 9.0 | 0.00 | 0.00 | 0.00 | 30 | 1020.3 |
| 20260510013023 | 55 | 40 | 4.0 | 11.0 | 0.00 | 0.00 | 0.00 | 30 | 1020.0 |
| 20260510012023 | 56 | 5 | 5.0 | 18.0 | 0.00 | 0.00 | 0.00 | 30 | 1019.9 |
| 20260510011028 | 57 | 76 | 4.0 | 12.0 | 0.00 | 0.00 | 0.00 | 28 | 1019.7 |
| 20260510011024 | 57 | 171 | 4.0 | 14.0 | 0.00 | 0.00 | 0.00 | 29 | 1019.9 |
| 20260510005022 | 58 | 331 | 4.0 | 13.0 | 0.00 | 0.00 | 0.00 | 27 | 1020.0 |
| 20260510004021 | 58 | 14 | 4.0 | 12.0 | 0.00 | 0.00 | 0.00 | 26 | 1019.6 |
| 20260510003021 | 59 | 57 | 3.0 | 10.0 | 0.00 | 0.00 | 0.00 | 25 | 1019.7 |
| 20260510002021 | 59 | 16 | 3.0 | 9.0 | 0.00 | 0.00 | 0.00 | 24 | 1019.6 |
| 20260510001022 | 60 | 341 | 4.0 | 9.0 | 0.00 | 0.00 | 0.00 | 22 | 1019.5 |
| 20260510000024 | 63 | 315 | 4.0 | 16.0 | 0.00 | 0.00 | 0.00 | 17 | 1019.2 |
| 20260510000018 | 62 | 5 | 3.0 | 10.0 | 0.00 | 0.00 | 0.00 | 18 | 1019.3 |
| 20260509235017 | 62 | 12 | 3.0 | 16.0 | 0.00 | 0.00 | 0.00 | 16 | 1019.2 |
| 20260509233136 | 65 | 271 | 1.0 | 4.0 | 0.00 | 0.00 | 0.00 | 16 | 1019.1 |
| 20260509233022 | 65 | 298 | 2.0 | 4.0 | 0.00 | 0.00 | 0.00 | 16 | 1019.2 |
| 20260509233017 | 64 | 14 | 4.0 | 13.0 | 0.00 | 0.00 | 0.00 | 16 | 1019.2 |
| 20260509230015 | 65 | 317 | 3.0 | 9.0 | 0.00 | 0.00 | 0.00 | 17 | 1019.2 |
| 20260509225015 | 66 | 221 | 2.0 | 9.0 | 0.00 | 0.00 | 0.00 | 16 | 1019.1 |
| 20260509224015 | 67 | 347 | 1.0 | 5.0 | 0.00 | 0.00 | 0.00 | 15 | 1019.1 |
| 20260509223010 | 68 | 5 | 2.0 | 5.0 | 0.00 | 0.00 | 0.00 | 16 | 1019.1 |
| 20260509222009 | 68 | 329 | 4.0 | 17.0 | 0.00 | 0.00 | 0.00 | 17 | 1019.1 |
| 20260509221010 | 70 | 289 | 4.0 | 14.0 | 0.00 | 0.00 | 0.00 | 13 | 1019.2 |
| 20260509220008 | 70 | 234 | 6.0 | 13.0 | 0.00 | 0.00 | 0.00 | 15 | 1018.8 |
| 20260509215007 | 70 | 247 | 3.0 | 12.0 | 0.00 | 0.00 | 0.00 | 14 | 1018.9 |
| 20260509214008 | 68 | 355 | 3.0 | 7.0 | 0.00 | 0.00 | 0.00 | 19 | 1018.9 |
| 20260509213007 | 69 | 336 | 3.0 | 9.0 | 0.00 | 0.00 | 0.00 | 16 | 1019.3 |
| 20260509212011 | 69 | 331 | 2.0 | 7.0 | 0.00 | 0.00 | 0.00 | 18 | 1019.3 |
| 20260509212007 | 69 | 291 | 2.0 | 7.0 | 0.00 | 0.00 | 0.00 | 17 | 1019.3 |
| 20260509211128 | 69 | 20 | 3.0 | 8.0 | 0.00 | 0.00 | 0.00 | 17 | 1019.3 |
| 20260509205001 | 68 | 304 | 3.0 | 9.0 | 0.00 | 0.00 | 0.00 | 18 | 1019.7 |
| 20260509204002 | 69 | 275 | 2.0 | 9.0 | 0.00 | 0.00 | 0.00 | 17 | 1019.7 |
| 20260509203008 | 70 | 290 | 4.0 | 14.0 | 0.00 | 0.00 | 0.00 | 16 | 1019.9 |
| 20260509203001 | 69 | 283 | 3.0 | 10.0 | 0.00 | 0.00 | 0.00 | 15 | 1019.9 |
| 20260509202002 | 69 | 288 | 3.0 | 8.0 | 0.00 | 0.00 | 0.00 | 16 | 1020.0 |